Time;durP1;ratioP1;P1;durP2;ratioP2;P2;SDS_P1;SDS_P2;PMS_P1;PMS_P2;Temp;Humidity;BMP_temperature;BMP_pressure;BME280_temperature;BME280_humidity;BME280_pressure;Samples;Min_cycle;Max_cycle;Signal;HPM_P1;HPM_P2
2022/03/15 00:00:22;;;;;;;;;;;21.70;29.30;;;;;;688178;28;1320;-82
2022/03/15 00:00:42;;;;;;;;;;;21.70;28.90;;;;;;685193;28;1458;-81
2022/03/15 00:01:03;;;;;;;;;;;21.70;28.80;;;;;;685991;28;830;-86
2022/03/15 00:01:24;;;;;;;;;;;21.70;28.90;;;;;;683223;29;1211;-85
2022/03/15 00:01:44;;;;;;;;;;;21.70;28.90;;;;;;683390;29;849;-88
2022/03/15 00:02:05;;;;;;;;;;;21.70;29.90;;;;;;683973;28;1210;-85
2022/03/15 00:02:25;;;;;;;;;;;21.70;28.90;;;;;;686328;28;802;-86
2022/03/15 00:02:46;;;;;;;;;;;21.70;29.20;;;;;;688716;28;774;-84
2022/03/15 00:03:07;;;;;;;;;;;21.70;29.00;;;;;;689066;28;845;-84
2022/03/15 00:03:28;;;;;;;;;;;21.70;29.00;;;;;;691534;28;868;-83
2022/03/15 00:03:48;;;;;;;;;;;21.70;28.70;;;;;;691449;28;916;-83
2022/03/15 00:04:09;;;;;;;;;;;21.70;28.80;;;;;;688418;28;1223;-85
2022/03/15 00:04:30;;;;;;;;;;;21.70;29.00;;;;;;688853;28;1325;-86
2022/03/15 00:04:51;;;;;;;;;;;21.70;28.80;;;;;;689081;28;1031;-84
2022/03/15 00:05:11;;;;;;;;;;;21.70;28.70;;;;;;686042;28;872;-82
2022/03/15 00:05:32;;;;;;;;;;;21.70;28.70;;;;;;686281;28;894;-84
2022/03/15 00:05:52;;;;;;;;;;;21.70;28.90;;;;;;686134;28;1339;-83
2022/03/15 00:06:13;;;;;;;;;;;21.70;28.90;;;;;;686588;28;1332;-88
2022/03/15 00:06:34;;;;;;;;;;;21.70;28.90;;;;;;688662;28;1100;-83
2022/03/15 00:06:56;;;;;;;;;;;21.70;28.80;;;;;;689107;28;885;-82
2022/03/15 00:07:17;;;;;;;;;;;21.70;28.80;;;;;;691440;28;795;-81
2022/03/15 00:07:37;;;;;;;;;;;21.70;28.80;;;;;;691680;28;845;-85
2022/03/15 00:07:58;;;;;;;;;;;21.70;28.70;;;;;;688286;28;1184;-82
2022/03/15 00:08:21;;;;;;;;;;;21.70;28.80;;;;;;690805;28;865;-83
2022/03/15 00:08:44;;;;;;;;;;;21.70;28.80;;;;;;691394;28;905;-85
2022/03/15 00:09:05;;;;;;;;;;;21.70;28.80;;;;;;691583;28;881;-83
2022/03/15 00:09:25;;;;;;;;;;;21.70;28.80;;;;;;691837;28;976;-85
2022/03/15 00:09:46;;;;;;;;;;;21.70;28.80;;;;;;692924;28;928;-84
2022/03/15 00:10:07;;;;;;;;;;;21.70;28.70;;;;;;694377;28;1090;-86
2022/03/15 00:10:28;;;;;;;;;;;21.70;28.70;;;;;;691080;28;1267;-82
2022/03/15 00:10:49;;;;;;;;;;;21.70;28.70;;;;;;691628;28;1302;-85
2022/03/15 00:11:10;;;;;;;;;;;21.70;28.70;;;;;;691856;28;1217;-86
2022/03/15 00:11:30;;;;;;;;;;;21.70;28.80;;;;;;688715;28;1221;-82
2022/03/15 00:11:53;;;;;;;;;;;21.70;28.80;;;;;;688359;28;1047;-83
2022/03/15 00:12:14;;;;;;;;;;;21.70;28.70;;;;;;683388;29;1238;-84
2022/03/15 00:12:34;;;;;;;;;;;21.70;28.70;;;;;;683413;29;881;-82
2022/03/15 00:12:56;;;;;;;;;;;21.70;28.80;;;;;;684088;28;1245;-82
2022/03/15 00:13:20;;;;;;;;;;;21.70;29.20;;;;;;686677;28;901;-83
2022/03/15 00:13:41;;;;;;;;;;;21.70;29.00;;;;;;688676;28;810;-82
2022/03/15 00:14:02;;;;;;;;;;;21.70;28.80;;;;;;689608;28;861;-83
2022/03/15 00:14:23;;;;;;;;;;;21.70;28.80;;;;;;691432;28;818;-85
2022/03/15 00:14:44;;;;;;;;;;;21.70;29.30;;;;;;691469;28;778;-87
2022/03/15 00:15:08;;;;;;;;;;;21.70;28.90;;;;;;688394;28;1257;-85
2022/03/15 00:15:28;;;;;;;;;;;21.70;28.70;;;;;;686049;28;1297;-86
2022/03/15 00:15:50;;;;;;;;;;;21.70;29.80;;;;;;685880;28;1973;-87
2022/03/15 00:16:10;;;;;;;;;;;21.70;29.50;;;;;;685823;28;1177;-84
2022/03/15 00:16:31;;;;;;;;;;;21.70;29.10;;;;;;686045;28;894;-84
2022/03/15 00:16:52;;;;;;;;;;;21.70;29.10;;;;;;683359;28;1285;-84
2022/03/15 00:17:13;;;;;;;;;;;21.70;28.80;;;;;;683700;28;853;-83
2022/03/15 00:17:37;;;;;;;;;;;21.50;28.80;;;;;;686490;28;869;-83
2022/03/15 00:17:58;;;;;;;;;;;21.70;28.70;;;;;;688781;28;885;-84
2022/03/15 00:18:21;;;;;;;;;;;21.70;28.90;;;;;;685978;28;961;-82
2022/03/15 00:18:41;;;;;;;;;;;21.70;29.30;;;;;;685891;28;1694;-83
2022/03/15 00:19:03;;;;;;;;;;;21.70;29.30;;;;;;687234;28;771;-85
2022/03/15 00:19:23;;;;;;;;;;;21.70;29.10;;;;;;685922;28;1510;-84
2022/03/15 00:19:44;;;;;;;;;;;21.70;29.00;;;;;;686045;28;818;-83
2022/03/15 00:20:06;;;;;;;;;;;21.70;28.90;;;;;;683344;28;819;-85
2022/03/15 00:20:27;;;;;;;;;;;21.70;29.60;;;;;;683281;29;811;-86
2022/03/15 00:20:47;;;;;;;;;;;21.70;29.00;;;;;;683408;29;902;-82
2022/03/15 00:21:11;;;;;;;;;;;21.60;28.90;;;;;;683784;28;1410;-81
2022/03/15 00:21:32;;;;;;;;;;;21.60;28.80;;;;;;686089;28;847;-81
2022/03/15 00:21:53;;;;;;;;;;;21.60;28.90;;;;;;686966;28;838;-82
2022/03/15 00:22:14;;;;;;;;;;;21.60;28.90;;;;;;688684;28;1413;-82
2022/03/15 00:22:36;;;;;;;;;;;21.60;28.90;;;;;;691317;28;838;-83
2022/03/15 00:22:59;;;;;;;;;;;21.60;29.30;;;;;;691426;28;818;-85
2022/03/15 00:23:19;;;;;;;;;;;20.80;29.10;;;;;;691570;28;916;-88
2022/03/15 00:23:40;;;;;;;;;;;21.60;29.40;;;;;;691557;28;802;-85
2022/03/15 00:24:00;;;;;;;;;;;21.60;29.10;;;;;;688713;28;1542;-84
2022/03/15 00:24:22;;;;;;;;;;;21.60;29.10;;;;;;686339;28;898;-83
2022/03/15 00:24:43;;;;;;;;;;;21.60;29.00;;;;;;686036;28;823;-85
2022/03/15 00:25:04;;;;;;;;;;;21.60;29.30;;;;;;686241;28;834;-83
2022/03/15 00:25:25;;;;;;;;;;;21.60;29.10;;;;;;685906;28;859;-83
2022/03/15 00:25:46;;;;;;;;;;;21.60;30.00;;;;;;683785;28;1095;-82
2022/03/15 00:26:07;;;;;;;;;;;21.60;29.10;;;;;;686637;28;858;-87
2022/03/15 00:26:28;;;;;;;;;;;21.60;29.40;;;;;;688782;28;834;-88
2022/03/15 00:26:48;;;;;;;;;;;21.60;29.50;;;;;;686132;28;1220;-86
2022/03/15 00:27:13;;;;;;;;;;;21.60;29.40;;;;;;683490;28;1397;-89
2022/03/15 00:27:34;;;;;;;;;;;21.60;29.30;;;;;;681826;28;1379;-89
2022/03/15 00:27:55;;;;;;;;;;;20.30;28.70;;;;;;683511;29;807;-89
2022/03/15 00:28:16;;;;;;;;;;;21.60;30.70;;;;;;683498;28;1470;-86
2022/03/15 00:28:37;;;;;;;;;;;21.60;29.70;;;;;;681682;28;1288;-88
2022/03/15 00:28:58;;;;;;;;;;;21.60;29.70;;;;;;684543;28;866;-87
2022/03/15 00:29:22;;;;;;;;;;;21.60;30.50;;;;;;686644;28;1205;-86
2022/03/15 00:29:43;;;;;;;;;;;21.60;30.80;;;;;;688747;28;1213;-89
2022/03/15 00:30:05;;;;;;;;;;;21.60;29.10;;;;;;686076;28;1219;-86
2022/03/15 00:30:26;;;;;;;;;;;21.60;29.10;;;;;;686926;28;1209;-85
2022/03/15 00:30:47;;;;;;;;;;;21.60;29.40;;;;;;685830;28;1159;-83
2022/03/15 00:31:07;;;;;;;;;;;21.60;29.40;;;;;;684830;28;1228;-85
2022/03/15 00:31:28;;;;;;;;;;;21.60;29.70;;;;;;684492;28;1409;-90
2022/03/15 00:31:49;;;;;;;;;;;21.60;29.30;;;;;;687229;28;885;-86
2022/03/15 00:32:11;;;;;;;;;;;21.60;29.30;;;;;;686597;28;1319;-84
2022/03/15 00:32:32;;;;;;;;;;;21.60;29.80;;;;;;689260;28;1201;-86
2022/03/15 00:32:52;;;;;;;;;;;21.60;29.40;;;;;;691286;28;1522;-88
2022/03/15 00:33:13;;;;;;;;;;;21.60;31.00;;;;;;691392;28;1220;-85
2022/03/15 00:33:34;;;;;;;;;;;21.50;31.30;;;;;;691415;28;830;-82
2022/03/15 00:33:55;;;;;;;;;;;21.60;30.00;;;;;;688583;28;909;-82
2022/03/15 00:34:16;;;;;;;;;;;21.60;29.20;;;;;;688290;28;901;-86
2022/03/15 00:34:36;;;;;;;;;;;21.60;29.40;;;;;;683367;28;1399;-85
2022/03/15 00:34:57;;;;;;;;;;;21.60;29.70;;;;;;684053;28;1404;-91
2022/03/15 00:35:25;;;;;;;;;;;21.60;30.00;;;;;;683611;29;1229;-86
2022/03/15 00:35:47;;;;;;;;;;;21.60;32.40;;;;;;681894;28;1311;-86
2022/03/15 00:36:08;;;;;;;;;;;21.60;30.10;;;;;;683289;28;1902;-87
2022/03/15 00:36:30;;;;;;;;;;;21.60;31.50;;;;;;684882;28;1224;-87
2022/03/15 00:36:51;;;;;;;;;;;21.60;30.00;;;;;;686067;28;1335;-86
2022/03/15 00:37:12;;;;;;;;;;;21.60;29.80;;;;;;687906;28;1259;-88
2022/03/15 00:37:32;;;;;;;;;;;21.60;29.80;;;;;;689578;28;1301;-90
2022/03/15 00:37:54;;;;;;;;;;;21.60;29.80;;;;;;688689;28;1278;-85
2022/03/15 00:38:14;;;;;;;;;;;21.70;30.00;;;;;;688126;28;771;-84
2022/03/15 00:38:36;;;;;;;;;;;21.70;29.80;;;;;;683748;28;1311;-93
2022/03/15 00:38:57;;;;;;;;;;;21.70;29.80;;;;;;684147;28;1301;-86
2022/03/15 00:39:17;;;;;;;;;;;21.70;30.20;;;;;;686227;28;1270;-87
2022/03/15 00:39:38;;;;;;;;;;;21.70;29.80;;;;;;685932;28;1277;-86
2022/03/15 00:39:58;;;;;;;;;;;21.70;29.90;;;;;;683365;28;1227;-84
2022/03/15 00:40:20;;;;;;;;;;;21.70;29.70;;;;;;684370;28;1216;-93
2022/03/15 00:40:41;;;;;;;;;;;21.70;29.60;;;;;;685987;28;1171;-91
2022/03/15 00:41:01;;;;;;;;;;;21.70;30.00;;;;;;683996;28;791;-87
2022/03/15 00:41:22;;;;;;;;;;;21.70;29.70;;;;;;686593;28;830;-87
2022/03/15 00:41:43;;;;;;;;;;;21.70;29.90;;;;;;688720;28;1290;-89
2022/03/15 00:42:03;;;;;;;;;;;21.70;30.00;;;;;;686222;28;1311;-88
2022/03/15 00:42:24;;;;;;;;;;;21.70;29.80;;;;;;686540;28;1217;-87
2022/03/15 00:42:47;;;;;;;;;;;21.70;29.90;;;;;;686048;28;1328;-88
2022/03/15 00:43:08;;;;;;;;;;;21.70;29.60;;;;;;683416;28;1403;-89
2022/03/15 00:43:28;;;;;;;;;;;21.70;29.60;;;;;;683495;28;1382;-90
2022/03/15 00:43:50;;;;;;;;;;;21.70;29.70;;;;;;680693;29;1197;-86
2022/03/15 00:44:10;;;;;;;;;;;21.70;29.60;;;;;;678721;29;1217;-86
2022/03/15 00:44:31;;;;;;;;;;;21.70;29.60;;;;;;681595;29;796;-84
2022/03/15 00:44:52;;;;;;;;;;;21.70;30.00;;;;;;681379;29;1217;-88
2022/03/15 00:45:12;;;;;;;;;;;21.70;29.70;;;;;;683050;29;1234;-89
2022/03/15 00:45:33;;;;;;;;;;;21.70;30.40;;;;;;681254;29;1435;-86
2022/03/15 00:45:55;;;;;;;;;;;21.70;29.70;;;;;;683228;28;1355;-87
2022/03/15 00:46:15;;;;;;;;;;;21.70;30.20;;;;;;680881;29;1205;-85
2022/03/15 00:46:36;;;;;;;;;;;21.70;29.50;;;;;;678737;29;1233;-85
2022/03/15 00:46:56;;;;;;;;;;;21.70;29.80;;;;;;678072;29;1297;-85
2022/03/15 00:47:17;;;;;;;;;;;21.80;30.00;;;;;;678765;29;966;-88
2022/03/15 00:47:38;;;;;;;;;;;21.70;30.00;;;;;;678490;29;1354;-87
2022/03/15 00:47:58;;;;;;;;;;;21.70;30.00;;;;;;678400;29;1277;-87
2022/03/15 00:48:19;;;;;;;;;;;20.40;29.50;;;;;;678333;29;1182;-88
2022/03/15 00:48:39;;;;;;;;;;;21.70;29.70;;;;;;681126;29;886;-87
2022/03/15 00:49:00;;;;;;;;;;;21.70;29.60;;;;;;683292;29;1204;-86
2022/03/15 00:49:21;;;;;;;;;;;21.70;29.70;;;;;;680629;29;1386;-89
2022/03/15 00:49:41;;;;;;;;;;;21.70;30.70;;;;;;680975;29;1201;-88
2022/03/15 00:50:02;;;;;;;;;;;21.70;30.50;;;;;;681022;29;1309;-88
2022/03/15 00:50:23;;;;;;;;;;;19.90;30.00;;;;;;683366;29;1189;-83
2022/03/15 00:50:43;;;;;;;;;;;21.70;30.30;;;;;;683595;28;796;-86
2022/03/15 00:51:04;;;;;;;;;;;21.80;29.70;;;;;;683214;28;1302;-84
2022/03/15 00:51:24;;;;;;;;;;;21.70;29.90;;;;;;683623;28;889;-82
2022/03/15 00:51:45;;;;;;;;;;;21.70;29.60;;;;;;683500;28;1364;-82
2022/03/15 00:52:06;;;;;;;;;;;21.70;29.50;;;;;;683253;29;1366;-83
2022/03/15 00:52:26;;;;;;;;;;;21.70;29.70;;;;;;680605;29;1295;-81
2022/03/15 00:52:47;;;;;;;;;;;21.70;29.40;;;;;;680924;29;780;-84
2022/03/15 00:53:09;;;;;;;;;;;21.70;29.50;;;;;;680782;29;1239;-83
2022/03/15 00:53:30;;;;;;;;;;;21.70;29.40;;;;;;682510;29;1347;-83
2022/03/15 00:53:50;;;;;;;;;;;21.80;29.70;;;;;;684466;28;756;-85
2022/03/15 00:54:11;;;;;;;;;;;21.80;30.00;;;;;;686050;28;948;-83
2022/03/15 00:54:31;;;;;;;;;;;21.70;30.50;;;;;;686035;28;879;-87
2022/03/15 00:54:52;;;;;;;;;;;21.70;30.30;;;;;;686402;28;925;-87
2022/03/15 00:55:13;;;;;;;;;;;21.90;31.60;;;;;;688679;28;839;-83
2022/03/15 00:55:33;;;;;;;;;;;21.70;33.00;;;;;;688628;28;1344;-87
2022/03/15 00:55:54;;;;;;;;;;;21.80;31.00;;;;;;688509;28;1899;-86
2022/03/15 00:56:14;;;;;;;;;;;21.70;30.10;;;;;;686233;28;1399;-85
2022/03/15 00:56:35;;;;;;;;;;;21.70;30.50;;;;;;683066;28;1386;-85
2022/03/15 00:56:57;;;;;;;;;;;21.70;30.00;;;;;;683451;29;783;-86
2022/03/15 00:57:18;;;;;;;;;;;21.70;29.80;;;;;;680915;28;870;-86
2022/03/15 00:57:38;;;;;;;;;;;21.90;30.00;;;;;;683138;28;1238;-84
2022/03/15 00:57:59;;;;;;;;;;;21.70;30.90;;;;;;683428;29;1086;-87
2022/03/15 00:58:20;;;;;;;;;;;21.70;31.20;;;;;;683961;28;720;-88
2022/03/15 00:58:40;;;;;;;;;;;21.70;30.20;;;;;;683239;28;1263;-84
2022/03/15 00:59:01;;;;;;;;;;;21.70;30.00;;;;;;680514;28;1239;-84
2022/03/15 00:59:21;;;;;;;;;;;21.70;31.50;;;;;;680754;28;1346;-86
2022/03/15 00:59:42;;;;;;;;;;;21.70;30.30;;;;;;680780;29;1342;-84
2022/03/15 01:00:06;;;;;;;;;;;21.70;30.00;;;;;;680544;29;1264;-83
2022/03/15 01:00:27;;;;;;;;;;;21.70;29.50;;;;;;678785;29;1261;-84
2022/03/15 01:00:48;;;;;;;;;;;21.70;29.60;;;;;;681469;29;890;-83
2022/03/15 01:01:09;;;;;;;;;;;21.70;30.10;;;;;;680600;29;1072;-83
2022/03/15 01:01:30;;;;;;;;;;;21.70;29.60;;;;;;681388;29;1184;-83
2022/03/15 01:01:50;;;;;;;;;;;21.70;30.10;;;;;;684190;28;1344;-83
2022/03/15 01:02:11;;;;;;;;;;;21.80;29.70;;;;;;683685;28;1345;-83
2022/03/15 01:02:33;;;;;;;;;;;21.80;30.00;;;;;;685983;28;728;-83
2022/03/15 01:02:53;;;;;;;;;;;21.80;29.80;;;;;;684220;28;1191;-85
2022/03/15 01:03:14;;;;;;;;;;;21.70;30.00;;;;;;685789;28;1362;-85
2022/03/15 01:03:35;;;;;;;;;;;21.80;29.80;;;;;;682943;28;1097;-91
2022/03/15 01:03:56;;;;;;;;;;;21.80;30.60;;;;;;680848;29;1496;-88
2022/03/15 01:04:16;;;;;;;;;;;21.80;29.80;;;;;;683093;29;1163;-88
2022/03/15 01:04:37;;;;;;;;;;;21.80;30.00;;;;;;683211;28;1341;-82
2022/03/15 01:04:57;;;;;;;;;;;21.70;29.60;;;;;;683604;28;895;-85
2022/03/15 01:05:18;;;;;;;;;;;21.70;29.60;;;;;;683438;28;1227;-83
2022/03/15 01:05:38;;;;;;;;;;;21.70;29.60;;;;;;683356;28;1384;-83
2022/03/15 01:05:59;;;;;;;;;;;21.70;29.60;;;;;;685890;28;906;-85
2022/03/15 01:06:20;;;;;;;;;;;21.80;29.80;;;;;;683016;29;1375;-83
2022/03/15 01:06:42;;;;;;;;;;;21.80;30.60;;;;;;683185;29;906;-83
2022/03/15 01:07:03;;;;;;;;;;;21.80;29.70;;;;;;683735;28;843;-84
2022/03/15 01:07:24;;;;;;;;;;;21.80;29.50;;;;;;686394;28;854;-82
2022/03/15 01:07:44;;;;;;;;;;;21.80;29.70;;;;;;688249;28;1395;-85
2022/03/15 01:08:05;;;;;;;;;;;24.10;31.00;;;;;;688335;28;1354;-84
2022/03/15 01:08:26;;;;;;;;;;;21.80;29.60;;;;;;688784;28;806;-83
2022/03/15 01:08:46;;;;;;;;;;;21.80;29.60;;;;;;688502;28;1337;-84
2022/03/15 01:09:07;;;;;;;;;;;21.80;29.90;;;;;;688713;28;850;-89
2022/03/15 01:09:27;;;;;;;;;;;21.80;30.70;;;;;;685960;28;1346;-86
2022/03/15 01:09:48;;;;;;;;;;;21.90;33.30;;;;;;683154;28;1398;-86
2022/03/15 01:10:09;;;;;;;;;;;21.90;30.50;;;;;;683369;29;823;-85
2022/03/15 01:10:29;;;;;;;;;;;21.80;29.60;;;;;;680792;29;1275;-84
2022/03/15 01:10:51;;;;;;;;;;;21.80;30.10;;;;;;683157;29;1373;-85
2022/03/15 01:11:11;;;;;;;;;;;21.70;29.90;;;;;;680904;29;1150;-83
2022/03/15 01:11:32;;;;;;;;;;;21.80;29.60;;;;;;683217;28;1400;-85
2022/03/15 01:11:52;;;;;;;;;;;21.70;30.10;;;;;;683099;28;1079;-85
2022/03/15 01:12:13;;;;;;;;;;;21.70;29.80;;;;;;683236;28;1241;-84
2022/03/15 01:12:34;;;;;;;;;;;21.70;29.70;;;;;;685735;28;1185;-86
2022/03/15 01:12:54;;;;;;;;;;;21.80;29.80;;;;;;683444;28;1115;-85
2022/03/15 01:13:16;;;;;;;;;;;21.90;31.20;;;;;;685796;28;1358;-83
2022/03/15 01:13:37;;;;;;;;;;;21.80;30.00;;;;;;685952;28;823;-86
2022/03/15 01:13:58;;;;;;;;;;;22.00;33.00;;;;;;685967;28;1351;-83
2022/03/15 01:14:18;;;;;;;;;;;21.80;30.10;;;;;;686482;28;882;-84
2022/03/15 01:14:39;;;;;;;;;;;21.90;30.10;;;;;;686512;28;1373;-86
2022/03/15 01:14:59;;;;;;;;;;;21.80;31.70;;;;;;687752;28;1498;-83
2022/03/15 01:15:24;;;;;;;;;;;21.70;30.30;;;;;;683207;28;1623;-81
2022/03/15 01:15:45;;;;;;;;;;;21.80;30.20;;;;;;683316;29;780;-83
2022/03/15 01:16:06;;;;;;;;;;;21.80;30.40;;;;;;680539;28;1914;-83
2022/03/15 01:16:26;;;;;;;;;;;21.80;29.90;;;;;;681197;28;1362;-81
2022/03/15 01:16:47;;;;;;;;;;;21.80;29.80;;;;;;683359;28;1145;-86
2022/03/15 01:17:08;;;;;;;;;;;21.80;30.00;;;;;;684115;28;826;-85
2022/03/15 01:17:28;;;;;;;;;;;21.70;29.90;;;;;;685740;28;1153;-84
2022/03/15 01:17:49;;;;;;;;;;;21.80;30.40;;;;;;683484;28;1403;-86
2022/03/15 01:18:10;;;;;;;;;;;21.70;31.10;;;;;;686268;28;1193;-87
2022/03/15 01:18:31;;;;;;;;;;;21.70;30.80;;;;;;688288;28;1258;-84
2022/03/15 01:18:51;;;;;;;;;;;21.70;32.70;;;;;;685872;28;814;-86
2022/03/15 01:19:12;;;;;;;;;;;21.70;30.50;;;;;;688297;28;1240;-90
2022/03/15 01:19:32;;;;;;;;;;;21.70;31.90;;;;;;688822;28;1205;-87
2022/03/15 01:19:53;;;;;;;;;;;21.80;31.10;;;;;;688548;28;1319;-85
2022/03/15 01:20:13;;;;;;;;;;;21.70;31.30;;;;;;685868;28;1232;-86
2022/03/15 01:20:34;;;;;;;;;;;21.80;31.80;;;;;;685904;28;1218;-85
2022/03/15 01:20:57;;;;;;;;;;;21.70;30.00;;;;;;685835;28;1189;-85
2022/03/15 01:21:19;;;;;;;;;;;21.70;29.40;;;;;;683242;29;823;-85
2022/03/15 01:21:40;;;;;;;;;;;21.70;32.10;;;;;;680531;29;1366;-80
2022/03/15 01:22:01;;;;;;;;;;;21.70;29.70;;;;;;678667;29;847;-85
2022/03/15 01:22:21;;;;;;;;;;;21.70;29.60;;;;;;681393;29;911;-82
2022/03/15 01:22:42;;;;;;;;;;;21.70;29.50;;;;;;686531;28;1261;-83
2022/03/15 01:23:02;;;;;;;;;;;21.70;29.80;;;;;;688667;28;815;-82
2022/03/15 01:23:23;;;;;;;;;;;21.70;29.50;;;;;;688964;28;819;-83
2022/03/15 01:23:44;;;;;;;;;;;21.70;30.90;;;;;;691576;28;937;-83
2022/03/15 01:24:06;;;;;;;;;;;21.60;29.50;;;;;;691075;28;1462;-83
2022/03/15 01:24:27;;;;;;;;;;;21.60;29.60;;;;;;690915;28;1384;-83
2022/03/15 01:24:49;;;;;;;;;;;21.60;30.10;;;;;;688569;28;1247;-83
2022/03/15 01:25:12;;;;;;;;;;;21.60;29.50;;;;;;691330;28;1255;-85
2022/03/15 01:25:32;;;;;;;;;;;21.60;29.50;;;;;;689064;28;1250;-83
2022/03/15 01:25:55;;;;;;;;;;;21.60;30.10;;;;;;687432;28;1346;-84
2022/03/15 01:26:15;;;;;;;;;;;21.60;30.20;;;;;;685876;28;866;-82
2022/03/15 01:26:37;;;;;;;;;;;21.60;29.70;;;;;;686752;28;907;-82
2022/03/15 01:26:58;;;;;;;;;;;21.60;30.10;;;;;;688450;28;1233;-83
2022/03/15 01:27:20;;;;;;;;;;;21.60;30.10;;;;;;689337;28;1255;-83
2022/03/15 01:27:40;;;;;;;;;;;21.60;30.00;;;;;;688522;28;1122;-82
2022/03/15 01:28:01;;;;;;;;;;;21.60;29.50;;;;;;688418;28;1207;-83
2022/03/15 01:28:22;;;;;;;;;;;21.60;30.80;;;;;;688307;28;1256;-83
2022/03/15 01:28:43;;;;;;;;;;;21.60;29.40;;;;;;685259;28;1268;-82
2022/03/15 01:29:03;;;;;;;;;;;21.60;29.70;;;;;;683801;28;823;-84
2022/03/15 01:29:26;;;;;;;;;;;21.60;29.80;;;;;;682874;29;1313;-87
2022/03/15 01:29:46;;;;;;;;;;;21.60;30.20;;;;;;681199;29;1234;-83
2022/03/15 01:30:07;;;;;;;;;;;21.60;30.60;;;;;;682991;29;1276;-85
2022/03/15 01:30:30;;;;;;;;;;;21.60;29.80;;;;;;683697;28;1359;-83
2022/03/15 01:30:50;;;;;;;;;;;21.60;30.10;;;;;;683180;28;1186;-86
2022/03/15 01:31:11;;;;;;;;;;;21.50;29.70;;;;;;684057;28;1170;-83
2022/03/15 01:31:32;;;;;;;;;;;21.60;30.40;;;;;;683075;29;1098;-81
2022/03/15 01:31:53;;;;;;;;;;;21.50;29.70;;;;;;683741;28;830;-83
2022/03/15 01:32:16;;;;;;;;;;;21.60;29.70;;;;;;683239;28;1444;-82
2022/03/15 01:32:36;;;;;;;;;;;21.60;29.80;;;;;;682261;29;905;-81
2022/03/15 01:32:57;;;;;;;;;;;21.60;30.00;;;;;;684828;28;755;-85
2022/03/15 01:33:18;;;;;;;;;;;21.50;29.90;;;;;;687282;28;1045;-85
2022/03/15 01:33:39;;;;;;;;;;;21.50;30.00;;;;;;689094;28;1290;-84
2022/03/15 01:33:59;;;;;;;;;;;21.50;29.60;;;;;;689702;28;1274;-83
2022/03/15 01:34:20;;;;;;;;;;;21.60;29.70;;;;;;691828;28;814;-84
2022/03/15 01:34:41;;;;;;;;;;;21.50;29.70;;;;;;688685;28;1386;-82
2022/03/15 01:35:04;;;;;;;;;;;21.50;30.00;;;;;;688549;28;1236;-85
2022/03/15 01:35:25;;;;;;;;;;;21.50;29.80;;;;;;688802;28;874;-82
2022/03/15 01:35:45;;;;;;;;;;;21.50;29.70;;;;;;685907;28;874;-82
2022/03/15 01:36:06;;;;;;;;;;;21.50;29.60;;;;;;684725;29;1903;-85
2022/03/15 01:36:27;;;;;;;;;;;21.60;29.90;;;;;;684480;28;839;-86
2022/03/15 01:36:47;;;;;;;;;;;20.60;29.30;;;;;;687198;28;815;-86
2022/03/15 01:37:08;;;;;;;;;;;21.60;29.70;;;;;;686468;28;1326;-86
2022/03/15 01:37:28;;;;;;;;;;;21.50;29.60;;;;;;686857;28;946;-86
2022/03/15 01:37:49;;;;;;;;;;;21.50;29.90;;;;;;689104;28;1064;-86
2022/03/15 01:38:10;;;;;;;;;;;21.50;29.80;;;;;;686707;28;1116;-86
2022/03/15 01:38:34;;;;;;;;;;;21.50;29.80;;;;;;688852;28;847;-84
2022/03/15 01:38:55;;;;;;;;;;;19.40;29.00;;;;;;687151;28;1556;-86
2022/03/15 01:39:15;;;;;;;;;;;21.50;29.70;;;;;;686331;28;1343;-83
2022/03/15 01:39:37;;;;;;;;;;;21.50;29.90;;;;;;685614;29;1075;-85
2022/03/15 01:39:57;;;;;;;;;;;19.90;29.70;;;;;;684526;28;874;-80
2022/03/15 01:40:18;;;;;;;;;;;21.50;29.80;;;;;;686345;28;842;-83
2022/03/15 01:40:38;;;;;;;;;;;21.50;29.70;;;;;;686524;28;1394;-84
2022/03/15 01:40:59;;;;;;;;;;;21.50;30.30;;;;;;686603;28;1422;-84
2022/03/15 01:41:21;;;;;;;;;;;21.50;30.00;;;;;;686314;28;1075;-85
2022/03/15 01:41:44;;;;;;;;;;;21.50;29.60;;;;;;686176;28;1314;-84
2022/03/15 01:42:04;;;;;;;;;;;21.50;29.90;;;;;;683401;29;901;-84
2022/03/15 01:42:25;;;;;;;;;;;21.50;29.80;;;;;;683421;28;843;-84
2022/03/15 01:42:45;;;;;;;;;;;21.50;29.70;;;;;;681055;29;1147;-84
2022/03/15 01:43:06;;;;;;;;;;;21.50;29.70;;;;;;681818;29;1303;-84
2022/03/15 01:43:27;;;;;;;;;;;21.50;29.90;;;;;;681572;29;863;-85
2022/03/15 01:43:48;;;;;;;;;;;21.50;30.10;;;;;;680847;29;1120;-85
2022/03/15 01:44:15;;;;;;;;;;;21.50;29.60;;;;;;680968;29;847;-84
2022/03/15 01:44:37;;;;;;;;;;;21.50;29.60;;;;;;681997;29;945;-84
2022/03/15 01:45:01;;;;;;;;;;;21.50;30.00;;;;;;683727;29;1015;-86
2022/03/15 01:45:35;;;;;;;;;;;21.50;30.00;;;;;;685426;28;728;-85
2022/03/15 01:45:55;;;;;;;;;;;21.00;29.40;;;;;;686395;28;1165;-85
2022/03/15 01:46:19;;;;;;;;;;;21.50;29.90;;;;;;686348;28;798;-84
2022/03/15 01:46:39;;;;;;;;;;;21.50;29.60;;;;;;688676;28;957;-85
2022/03/15 01:47:00;;;;;;;;;;;21.50;29.70;;;;;;688981;28;821;-84
2022/03/15 01:47:21;;;;;;;;;;;21.50;29.80;;;;;;686375;28;807;-85
2022/03/15 01:47:43;;;;;;;;;;;21.50;29.70;;;;;;687085;28;1126;-85
2022/03/15 01:48:05;;;;;;;;;;;21.50;30.10;;;;;;686248;28;814;-85
2022/03/15 01:48:25;;;;;;;;;;;21.50;29.70;;;;;;683509;28;1650;-85
2022/03/15 01:48:46;;;;;;;;;;;21.50;30.10;;;;;;683800;28;1296;-84
2022/03/15 01:49:06;;;;;;;;;;;21.50;30.00;;;;;;681284;29;1447;-84
2022/03/15 01:49:27;;;;;;;;;;;21.40;30.60;;;;;;681982;29;1344;-86
2022/03/15 01:49:48;;;;;;;;;;;21.50;30.00;;;;;;684813;28;1001;-86
2022/03/15 01:50:08;;;;;;;;;;;21.50;29.70;;;;;;687130;28;977;-84
2022/03/15 01:50:29;;;;;;;;;;;21.40;30.80;;;;;;689490;28;1488;-86
2022/03/15 01:50:50;;;;;;;;;;;21.50;29.90;;;;;;690113;28;1370;-85
2022/03/15 01:51:13;;;;;;;;;;;21.50;29.90;;;;;;692179;28;1292;-86
2022/03/15 01:51:34;;;;;;;;;;;21.50;30.00;;;;;;689532;28;1281;-85
2022/03/15 01:51:54;;;;;;;;;;;21.40;30.00;;;;;;687193;28;1320;-85
2022/03/15 01:52:15;;;;;;;;;;;21.40;29.80;;;;;;686844;28;1017;-85
2022/03/15 01:52:36;;;;;;;;;;;21.50;30.30;;;;;;687038;28;1236;-87
2022/03/15 01:52:57;;;;;;;;;;;21.50;30.10;;;;;;687136;28;1319;-85
2022/03/15 01:53:18;;;;;;;;;;;22.40;30.60;;;;;;687219;28;910;-86
2022/03/15 01:53:38;;;;;;;;;;;21.40;29.80;;;;;;686997;28;850;-86
2022/03/15 01:53:59;;;;;;;;;;;21.50;29.90;;;;;;687462;28;767;-86
2022/03/15 01:54:20;;;;;;;;;;;21.50;30.10;;;;;;684592;28;1251;-86
2022/03/15 01:54:41;;;;;;;;;;;21.40;29.80;;;;;;687061;28;815;-87
2022/03/15 01:55:03;;;;;;;;;;;21.50;29.80;;;;;;684394;28;1360;-85
2022/03/15 01:55:24;;;;;;;;;;;21.50;29.90;;;;;;682254;29;1396;-85
2022/03/15 01:55:45;;;;;;;;;;;21.50;30.00;;;;;;684191;29;1078;-89
2022/03/15 01:56:05;;;;;;;;;;;21.40;29.90;;;;;;682151;29;1946;-86
2022/03/15 01:56:26;;;;;;;;;;;21.40;30.00;;;;;;681474;29;1364;-86
2022/03/15 01:56:47;;;;;;;;;;;21.50;30.00;;;;;;681826;29;779;-86
2022/03/15 01:57:08;;;;;;;;;;;22.00;30.20;;;;;;680958;28;1192;-87
2022/03/15 01:57:29;;;;;;;;;;;21.50;30.00;;;;;;683276;29;866;-86
2022/03/15 01:57:50;;;;;;;;;;;21.40;29.90;;;;;;683185;28;1356;-85
2022/03/15 01:58:10;;;;;;;;;;;20.60;29.90;;;;;;680967;29;906;-87
2022/03/15 01:58:31;;;;;;;;;;;21.50;30.50;;;;;;683471;29;780;-86
2022/03/15 01:58:51;;;;;;;;;;;21.40;32.50;;;;;;683587;28;1580;-85
2022/03/15 01:59:14;;;;;;;;;;;21.40;32.70;;;;;;685735;28;1236;-85
2022/03/15 01:59:35;;;;;;;;;;;21.50;30.10;;;;;;686476;28;811;-85
2022/03/15 01:59:56;;;;;;;;;;;21.40;30.00;;;;;;686324;28;1365;-85
2022/03/15 02:00:17;;;;;;;;;;;21.50;30.00;;;;;;688370;28;1474;-85
2022/03/15 02:00:38;;;;;;;;;;;21.50;30.10;;;;;;688497;28;1295;-86
2022/03/15 02:00:58;;;;;;;;;;;21.50;31.90;;;;;;685039;28;1150;-86
2022/03/15 02:01:19;;;;;;;;;;;21.50;31.50;;;;;;685797;28;1229;-86
2022/03/15 02:01:41;;;;;;;;;;;21.50;31.60;;;;;;683191;29;1103;-86
2022/03/15 02:02:02;;;;;;;;;;;21.50;31.50;;;;;;683246;29;851;-86
2022/03/15 02:02:23;;;;;;;;;;;21.50;33.30;;;;;;683718;28;1215;-89
2022/03/15 02:02:44;;;;;;;;;;;21.50;32.30;;;;;;683173;28;1196;-91
2022/03/15 02:03:05;;;;;;;;;;;21.60;31.60;;;;;;683101;29;1367;-90
2022/03/15 02:03:26;;;;;;;;;;;21.50;32.10;;;;;;681288;28;1242;-89
2022/03/15 02:03:46;;;;;;;;;;;21.50;35.30;;;;;;683318;28;1355;-87
2022/03/15 02:04:07;;;;;;;;;;;21.60;36.00;;;;;;683830;28;1177;-88
2022/03/15 02:04:28;;;;;;;;;;;21.60;34.50;;;;;;686338;28;1392;-86
2022/03/15 02:04:49;;;;;;;;;;;21.50;35.70;;;;;;685764;28;1386;-86
2022/03/15 02:05:12;;;;;;;;;;;21.60;35.90;;;;;;683543;28;1125;-87
2022/03/15 02:05:33;;;;;;;;;;;21.60;36.30;;;;;;685078;28;1165;-86
2022/03/15 02:05:53;;;;;;;;;;;21.60;37.10;;;;;;683926;28;772;-86
2022/03/15 02:06:14;;;;;;;;;;;21.60;35.00;;;;;;685791;28;881;-88
2022/03/15 02:06:35;;;;;;;;;;;21.60;34.30;;;;;;686505;28;926;-87
2022/03/15 02:07:02;;;;;;;;;;;21.60;34.70;;;;;;688955;28;1201;-85
2022/03/15 02:07:23;;;;;;;;;;;21.70;34.00;;;;;;691163;28;823;-85